Time;durP1;ratioP1;P1;durP2;ratioP2;P2;SDS_P1;SDS_P2;PMS_P1;PMS_P2;Temp;Humidity;BMP_temperature;BMP_pressure;BME280_temperature;BME280_humidity;BME280_pressure;Samples;Min_cycle;Max_cycle;Signal;HPM_P1;HPM_P2
2022/08/12 00:42:58;;;;;;;;;;;26.70;61.40;26.50;99300.00;;;;340672;28;83252;-87
2022/08/12 00:43:09;;;;;;;;;;;26.70;61.40;26.50;99309.00;;;;341674;28;88833;-87
2022/08/12 00:43:21;;;;;;;;;;;26.60;61.60;26.50;99299.00;;;;344941;28;83103;-87
2022/08/12 00:43:34;;;;;;;;;;;26.60;62.00;26.50;99299.00;;;;342948;28;91304;-88
2022/08/12 00:43:47;;;;;;;;;;;26.70;61.60;26.60;99304.00;;;;344807;28;82496;-88
2022/08/12 00:43:59;;;;;;;;;;;26.70;61.40;26.60;99305.00;;;;343119;28;88769;-87
2022/08/12 00:44:12;;;;;;;;;;;26.70;61.30;26.70;99300.00;;;;344766;28;82542;-87
2022/08/12 00:44:24;;;;;;;;;;;26.60;61.40;26.60;99295.00;;;;344216;28;93423;-87
2022/08/12 00:44:43;;;;;;;;;;;26.60;61.70;26.60;99297.00;;;;342069;28;83446;-88
2022/08/12 00:44:55;;;;;;;;;;;26.60;61.70;26.50;99304.00;;;;342981;28;92303;-87
2022/08/12 00:45:07;;;;;;;;;;;26.60;61.70;26.50;99305.00;;;;343477;28;83340;-87
2022/08/12 00:45:19;;;;;;;;;;;26.60;61.80;26.50;99298.00;;;;343054;28;88812;-87
2022/08/12 00:46:29;;;;;;;;;;;26.60;61.60;26.50;99306.00;;;;343586;28;83305;-87
2022/08/12 00:46:46;;;;;;;;;;;26.60;61.80;26.60;99306.00;;;;341999;28;83272;-87
2022/08/12 00:46:59;;;;;;;;;;;26.60;61.60;26.60;99307.00;;;;342970;28;91493;-87
2022/08/12 00:47:11;;;;;;;;;;;26.60;61.90;26.60;99306.00;;;;343375;28;83342;-87
2022/08/12 00:47:35;;;;;;;;;;;26.60;61.70;26.70;99298.00;;;;344392;28;90799;-87
2022/08/12 00:47:48;;;;;;;;;;;26.60;61.60;26.60;99305.00;;;;342060;28;83487;-87
2022/08/12 00:48:00;;;;;;;;;;;26.60;62.60;26.60;99299.00;;;;341721;28;88630;-87
2022/08/12 00:48:11;;;;;;;;;;;26.60;61.90;26.60;99300.00;;;;343385;28;82663;-87
2022/08/12 00:48:23;;;;;;;;;;;26.60;61.70;26.50;99304.00;;;;341702;28;88806;-87
2022/08/12 00:48:36;;;;;;;;;;;26.60;61.90;26.50;99306.00;;;;342018;28;83343;-87
2022/08/12 00:48:48;;;;;;;;;;;26.60;61.90;26.50;99300.00;;;;342904;28;91159;-87
2022/08/12 00:49:00;;;;;;;;;;;26.60;61.80;26.50;99305.00;;;;344836;28;82368;-87
2022/08/12 00:49:12;;;;;;;;;;;26.60;61.90;26.40;99304.00;;;;342916;28;92607;-87
2022/08/12 00:49:25;;;;;;;;;;;26.60;61.90;26.60;99299.00;;;;343355;28;83118;-87
2022/08/12 00:49:37;;;;;;;;;;;26.60;61.60;26.70;99298.00;;;;342993;28;89948;-87
2022/08/12 00:49:48;;;;;;;;;;;26.60;61.70;26.70;99304.00;;;;343436;28;83362;-87
2022/08/12 00:50:01;;;;;;;;;;;26.60;61.90;26.60;99296.00;;;;344469;28;88646;-87
2022/08/12 00:50:17;;;;;;;;;;;26.60;62.00;26.60;99307.00;;;;347451;28;83435;-87
2022/08/12 00:50:28;;;;;;;;;;;26.60;62.00;26.70;99296.00;;;;344465;28;88704;-87
2022/08/12 00:50:40;;;;;;;;;;;26.60;61.90;26.60;99304.00;;;;343379;28;83302;-87
2022/08/12 00:50:53;;;;;;;;;;;26.60;61.80;26.60;99293.00;;;;342892;28;90298;-87
2022/08/12 00:51:06;;;;;;;;;;;26.60;61.90;26.50;99306.00;;;;344786;28;83404;-87
2022/08/12 00:51:17;;;;;;;;;;;26.60;61.90;26.60;99300.00;;;;344355;28;91991;-87
2022/08/12 00:52:07;;;;;;;;;;;26.60;61.90;26.70;99300.00;;;;345738;28;90377;-88
2022/08/12 00:52:19;;;;;;;;;;;26.60;61.60;26.60;99308.00;;;;344802;28;82329;-87
2022/08/12 00:52:32;;;;;;;;;;;26.60;62.00;26.70;99297.00;;;;345492;28;91973;-87
2022/08/12 00:52:45;;;;;;;;;;;26.60;61.90;26.70;99305.00;;;;346142;28;82635;-87
2022/08/12 00:52:57;;;;;;;;;;;26.60;61.90;26.80;99299.00;;;;343051;28;89029;-88
2022/08/12 00:53:09;;;;;;;;;;;26.60;61.70;26.70;99299.00;;;;342021;28;83401;-87
2022/08/12 00:53:20;;;;;;;;;;;26.70;61.60;26.60;99299.00;;;;342935;28;91012;-87
2022/08/12 00:53:32;;;;;;;;;;;26.70;61.80;26.60;99300.00;;;;344720;28;83519;-87
2022/08/12 00:53:44;;;;;;;;;;;26.70;61.90;26.60;99300.00;;;;345773;28;88788;-87
2022/08/12 00:53:56;;;;;;;;;;;26.60;62.00;26.60;99300.00;;;;346188;28;83378;-87
2022/08/12 00:54:08;;;;;;;;;;;26.60;62.10;26.60;99305.00;;;;341443;28;93140;-87
2022/08/12 00:54:20;;;;;;;;;;;26.60;61.90;26.50;99300.00;;;;340693;28;83485;-87
2022/08/12 00:55:02;;;;;;;;;;;26.60;62.00;26.60;99307.00;;;;343003;28;88763;-87
2022/08/12 00:55:14;;;;;;;;;;;26.60;62.20;26.60;99305.00;;;;343348;28;83404;-87
2022/08/12 00:55:26;;;;;;;;;;;26.60;61.90;26.50;99304.00;;;;341631;28;88788;-88
2022/08/12 00:55:37;;;;;;;;;;;26.60;62.00;26.50;99299.00;;;;340610;28;83550;-87
2022/08/12 00:55:50;;;;;;;;;;;26.60;62.40;26.50;99306.00;;;;342840;28;92236;-87
2022/08/12 00:56:02;;;;;;;;;;;26.60;62.60;26.40;99299.00;;;;341968;28;83318;-87
2022/08/12 00:56:14;;;;;;;;;;;26.60;62.60;26.40;99297.00;;;;341598;28;89493;-87
2022/08/12 00:56:26;;;;;;;;;;;26.60;62.60;26.30;99292.00;;;;340679;28;83437;-87
2022/08/12 00:56:38;;;;;;;;;;;26.60;62.60;26.30;99300.00;;;;341502;28;93074;-87
2022/08/12 00:56:50;;;;;;;;;;;26.60;62.50;26.40;99292.00;;;;341903;28;83401;-87
2022/08/12 00:57:21;;;;;;;;;;;26.60;62.60;26.60;99296.00;;;;340207;28;90533;-87
2022/08/12 00:57:35;;;;;;;;;;;26.60;62.40;26.50;99298.00;;;;340627;28;83370;-87
2022/08/12 00:57:48;;;;;;;;;;;26.60;62.70;26.50;99297.00;;;;340164;28;91980;-87
2022/08/12 00:57:59;;;;;;;;;;;26.60;62.50;26.50;99296.00;;;;342086;28;83278;-87
2022/08/12 00:58:15;;;;;;;;;;;26.60;62.40;26.40;99294.00;;;;340152;28;91227;-87
2022/08/12 00:58:28;;;;;;;;;;;26.60;62.60;26.40;99295.00;;;;339342;28;82712;-87
2022/08/12 00:58:45;;;;;;;;;;;26.50;62.30;26.40;99295.00;;;;341621;28;92181;-87
2022/08/12 00:58:57;;;;;;;;;;;26.60;62.40;26.50;99294.00;;;;340733;28;82558;-88
2022/08/12 00:59:09;;;;;;;;;;;26.60;62.20;26.40;99287.00;;;;340146;28;92529;-87
2022/08/12 00:59:21;;;;;;;;;;;26.50;62.40;26.30;99293.00;;;;340629;28;83319;-87
2022/08/12 00:59:33;;;;;;;;;;;26.50;62.60;26.40;99294.00;;;;340220;28;89331;-87
2022/08/12 00:59:48;;;;;;;;;;;26.60;62.50;26.50;99295.00;;;;340717;28;82405;-87
2022/08/12 01:00:10;;;;;;;;;;;26.50;62.40;26.60;99296.00;;;;338933;28;91323;-87
2022/08/12 01:00:23;;;;;;;;;;;26.50;62.50;26.50;99294.00;;;;339328;28;83420;-87
2022/08/12 01:00:36;;;;;;;;;;;26.50;62.60;26.40;99288.00;;;;337626;28;89320;-87
2022/08/12 01:00:48;;;;;;;;;;;26.50;62.50;26.40;99289.00;;;;340510;28;83476;-87
2022/08/12 01:01:06;;;;;;;;;;;26.50;63.20;26.60;99291.00;;;;340287;28;90609;-87
2022/08/12 01:01:18;;;;;;;;;;;26.50;62.60;26.60;99293.00;;;;339502;28;82628;-87
2022/08/12 01:01:32;;;;;;;;;;;26.50;62.30;26.60;99292.00;;;;340051;28;92251;-87
2022/08/12 01:02:04;;;;;;;;;;;26.50;62.40;26.40;99294.00;;;;341912;28;83450;-88
2022/08/12 01:02:32;;;;;;;;;;;26.60;62.80;26.40;99292.00;;;;340221;28;92184;-87
2022/08/12 01:02:46;;;;;;;;;;;26.50;62.60;26.60;99292.00;;;;340696;28;83331;-87
2022/08/12 01:02:58;;;;;;;;;;;26.50;62.60;26.50;99292.00;;;;344257;28;89491;-87
2022/08/12 01:03:09;;;;;;;;;;;26.50;62.60;26.50;99294.00;;;;341951;28;83530;-88
2022/08/12 01:03:21;;;;;;;;;;;26.50;62.70;26.50;99300.00;;;;339016;28;87972;-87
2022/08/12 01:11:31;;;;;;;;;;;26.40;63.20;26.30;99300.00;;;;336602;28;83353;-87
2022/08/12 01:11:43;;;;;;;;;;;26.40;63.20;26.50;99297.00;;;;337561;28;91976;-87
2022/08/12 01:11:56;;;;;;;;;;;26.40;63.10;26.50;99292.00;;;;338022;28;82528;-88
2022/08/12 01:12:08;;;;;;;;;;;26.40;63.20;26.50;99298.00;;;;336149;28;93160;-88
2022/08/12 01:12:20;;;;;;;;;;;26.50;63.20;26.50;99293.00;;;;339338;28;83341;-88
2022/08/12 01:12:32;;;;;;;;;;;26.40;63.30;26.50;99296.00;;;;338833;28;91792;-88
2022/08/12 01:12:43;;;;;;;;;;;26.40;63.40;26.40;99293.00;;;;338048;28;83398;-88
2022/08/12 01:12:56;;;;;;;;;;;26.40;63.40;26.40;99299.00;;;;334977;29;88720;-88
2022/08/12 01:13:29;;;;;;;;;;;26.40;63.30;26.50;99299.00;;;;337970;28;83465;-88
2022/08/12 01:13:50;;;;;;;;;;;26.50;62.90;26.30;99296.00;;;;337546;28;91507;-88
2022/08/12 01:14:02;;;;;;;;;;;26.40;63.30;26.30;99288.00;;;;337804;28;82484;-87
2022/08/12 01:14:14;;;;;;;;;;;26.50;63.40;26.40;99299.00;;;;334873;29;90436;-87
2022/08/12 01:14:26;;;;;;;;;;;26.40;63.20;26.40;99293.00;;;;335387;29;82259;-88
2022/08/12 01:14:41;;;;;;;;;;;26.40;63.00;26.40;99296.00;;;;336205;28;91565;-88
2022/08/12 01:14:53;;;;;;;;;;;26.40;63.10;26.50;99297.00;;;;336611;28;83673;-88
2022/08/12 01:15:05;;;;;;;;;;;26.40;62.80;26.50;99298.00;;;;334964;29;90423;-88
2022/08/12 01:15:17;;;;;;;;;;;26.40;62.90;26.40;99295.00;;;;335500;29;82409;-88
2022/08/12 01:15:28;;;;;;;;;;;26.40;63.30;26.30;99293.00;;;;334863;29;91064;-88
2022/08/12 01:15:41;;;;;;;;;;;26.40;63.60;26.40;99296.00;;;;336631;28;83552;-88
2022/08/12 01:15:54;;;;;;;;;;;26.40;63.50;26.50;99298.00;;;;336281;28;90078;-88
2022/08/12 01:16:06;;;;;;;;;;;26.40;63.40;26.40;99297.00;;;;336623;28;82410;-88
2022/08/12 01:16:22;;;;;;;;;;;26.40;63.60;26.30;99306.00;;;;337538;28;91638;-88
2022/08/12 01:16:35;;;;;;;;;;;26.40;63.70;26.30;99295.00;;;;338095;28;83373;-88
2022/08/12 01:16:47;;;;;;;;;;;26.40;63.70;26.30;99295.00;;;;337414;28;92319;-88
2022/08/12 01:17:00;;;;;;;;;;;26.40;63.50;26.40;99289.00;;;;336798;28;83534;-87
2022/08/12 01:17:12;;;;;;;;;;;26.40;63.30;26.40;99295.00;;;;337620;28;87676;-87
2022/08/12 01:17:23;;;;;;;;;;;26.40;63.40;26.30;99291.00;;;;337994;28;83479;-87
2022/08/12 01:17:35;;;;;;;;;;;26.40;63.70;26.30;99294.00;;;;338868;28;91157;-87
2022/08/12 01:17:47;;;;;;;;;;;26.40;63.70;26.40;99297.00;;;;339243;28;83227;-88
2022/08/12 01:17:59;;;;;;;;;;;26.40;63.60;26.40;99304.00;;;;340198;28;90085;-87
2022/08/12 01:18:15;;;;;;;;;;;26.40;63.30;26.40;99308.00;;;;337828;28;83474;-87
2022/08/12 01:18:29;;;;;;;;;;;26.40;63.30;26.30;99305.00;;;;336224;28;91701;-87
2022/08/12 01:18:42;;;;;;;;;;;26.40;63.70;26.40;99307.00;;;;337962;28;83467;-88
2022/08/12 01:18:55;;;;;;;;;;;26.40;63.40;26.40;99304.00;;;;338858;28;91346;-87
2022/08/12 01:19:06;;;;;;;;;;;26.30;63.20;26.30;99304.00;;;;336697;28;83362;-86
2022/08/12 01:19:20;;;;;;;;;;;26.40;63.50;26.40;99294.00;;;;336224;28;91826;-87
2022/08/12 01:19:32;;;;;;;;;;;26.40;63.20;26.30;99305.00;;;;336641;28;83498;-87
2022/08/12 01:19:46;;;;;;;;;;;26.30;63.30;26.40;99297.00;;;;336308;28;88824;-87
2022/08/12 01:20:00;;;;;;;;;;;26.30;63.20;26.30;99299.00;;;;338030;28;83289;-87
2022/08/12 01:20:18;;;;;;;;;;;26.30;63.20;26.30;99298.00;;;;337441;28;88863;-87
2022/08/12 01:20:50;;;;;;;;;;;26.40;63.70;26.30;99314.00;;;;335406;29;82284;-87
2022/08/12 01:21:05;;;;;;;;;;;26.40;63.30;26.30;99305.00;;;;338738;28;89498;-87
2022/08/12 01:21:26;;;;;;;;;;;26.30;63.40;26.40;99298.00;;;;337996;28;83331;-87
2022/08/12 01:22:01;;;;;;;;;;;26.30;63.20;26.20;99305.00;;;;337569;28;91903;-87
2022/08/12 01:22:34;;;;;;;;;;;26.30;63.90;26.30;99312.00;;;;337944;28;83484;-87
2022/08/12 01:23:14;;;;;;;;;;;26.30;63.60;26.30;99313.00;;;;337378;28;90774;-87
2022/08/12 01:24:00;;;;;;;;;;;26.30;63.60;26.40;99309.00;;;;336675;28;83426;-87
2022/08/12 01:25:22;;;;;;;;;;;26.30;64.00;26.20;99295.00;;;;337539;28;91531;-87
2022/08/12 01:25:49;;;;;;;;;;;26.30;64.30;26.20;99294.00;;;;337699;28;83460;-87
2022/08/12 01:26:19;;;;;;;;;;;26.30;63.90;26.10;99308.00;;;;333408;29;91672;-87
2022/08/12 01:26:46;;;;;;;;;;;26.20;64.10;26.20;99307.00;;;;335177;29;83505;-87
2022/08/12 01:27:13;;;;;;;;;;;26.30;63.90;26.10;99298.00;;;;335995;28;91105;-87
2022/08/12 01:27:39;;;;;;;;;;;26.30;64.20;26.10;99305.00;;;;335266;29;82806;-87
2022/08/12 01:28:05;;;;;;;;;;;26.20;64.60;26.10;99305.00;;;;334825;29;90584;-87
2022/08/12 01:28:31;;;;;;;;;;;26.20;64.40;26.10;99311.00;;;;337864;28;83437;-87
2022/08/12 01:28:57;;;;;;;;;;;26.20;64.20;26.20;99305.00;;;;334831;29;90532;-87
2022/08/12 01:29:28;;;;;;;;;;;26.20;63.90;26.30;99300.00;;;;335283;29;82509;-87
2022/08/12 01:29:55;;;;;;;;;;;26.30;64.00;26.10;99306.00;;;;336236;28;89558;-87
2022/08/12 01:30:21;;;;;;;;;;;26.20;64.50;26.10;99310.00;;;;336451;28;82712;-87
2022/08/12 01:30:47;;;;;;;;;;;26.20;64.10;26.10;99305.00;;;;350586;27;75852;-87
2022/08/12 01:31:03;;;;;;;;;;;26.20;64.40;26.20;99297.00;;;;347136;28;83278;-87
2022/08/12 01:31:16;;;;;;;;;;;26.20;64.40;26.20;99298.00;;;;344328;28;88158;-87
2022/08/12 01:31:28;;;;;;;;;;;26.20;64.40;26.10;99306.00;;;;345713;28;83480;-87
2022/08/12 01:31:40;;;;;;;;;;;26.20;64.60;26.10;99300.00;;;;345683;28;86799;-87
2022/08/12 01:31:53;;;;;;;;;;;26.20;64.80;26.00;99307.00;;;;344347;28;82423;-86
2022/08/12 01:32:07;;;;;;;;;;;26.20;64.80;26.20;99306.00;;;;344318;28;85031;-87
2022/08/12 01:32:21;;;;;;;;;;;26.20;64.30;26.10;99307.00;;;;344441;28;83406;-87
2022/08/12 01:32:36;;;;;;;;;;;26.20;64.70;26.00;99308.00;;;;344418;28;84997;-87
2022/08/12 01:32:48;;;;;;;;;;;26.20;64.60;26.00;99296.00;;;;345653;28;83454;-88
2022/08/12 01:33:01;;;;;;;;;;;26.20;64.60;26.20;99300.00;;;;344239;28;87836;-87
2022/08/12 01:33:14;;;;;;;;;;;26.20;64.30;26.20;99299.00;;;;344393;28;83348;-88
2022/08/12 01:33:28;;;;;;;;;;;26.20;64.10;26.10;99300.00;;;;344309;28;87191;-88
2022/08/12 01:33:45;;;;;;;;;;;26.20;64.40;26.10;99299.00;;;;341723;28;82547;-88
2022/08/12 01:33:58;;;;;;;;;;;26.20;64.50;26.00;99305.00;;;;343069;28;84946;-87
2022/08/12 01:34:11;;;;;;;;;;;26.20;64.40;26.20;99296.00;;;;343087;28;83333;-87
2022/08/12 01:34:54;;;;;;;;;;;26.20;64.30;25.90;99307.00;;;;345647;28;86798;-88
2022/08/12 01:35:09;;;;;;;;;;;26.20;64.60;25.90;99299.00;;;;345727;28;83536;-87
2022/08/12 01:35:21;;;;;;;;;;;26.10;64.80;26.10;99307.00;;;;344344;28;87754;-88
2022/08/12 01:35:33;;;;;;;;;;;26.20;64.70;26.20;99293.00;;;;342968;28;82558;-87
2022/08/12 01:35:48;;;;;;;;;;;26.20;64.60;26.00;99309.00;;;;345570;28;88143;-87
2022/08/12 01:36:19;;;;;;;;;;;26.10;64.80;26.00;99298.00;;;;342995;28;83605;-87
2022/08/12 01:36:45;;;;;;;;;;;26.10;65.00;26.00;99307.00;;;;343040;28;84276;-88
2022/08/12 01:36:58;;;;;;;;;;;26.10;64.90;26.00;99300.00;;;;347175;28;83300;-88
2022/08/12 01:37:10;;;;;;;;;;;26.10;65.00;26.00;99299.00;;;;343002;28;84772;-88
2022/08/12 01:37:23;;;;;;;;;;;26.10;65.00;26.10;99304.00;;;;341734;28;83306;-87
2022/08/12 01:37:53;;;;;;;;;;;26.10;64.50;26.00;99307.00;;;;343061;28;83617;-87
2022/08/12 01:38:07;;;;;;;;;;;26.10;64.90;25.90;99299.00;;;;345680;28;82552;-87
2022/08/12 01:38:20;;;;;;;;;;;26.10;65.40;25.90;99297.00;;;;345703;28;87300;-87
2022/08/12 01:38:40;;;;;;;;;;;26.10;65.60;26.00;99298.00;;;;344310;28;83426;-87
2022/08/12 01:38:55;;;;;;;;;;;26.10;65.30;26.00;99299.00;;;;347006;28;85623;-87
2022/08/12 01:39:07;;;;;;;;;;;26.00;65.20;25.90;99307.00;;;;344442;28;83302;-87
2022/08/12 01:39:19;;;;;;;;;;;26.00;65.40;26.00;99300.00;;;;345681;28;87999;-87
2022/08/12 01:39:32;;;;;;;;;;;26.10;65.60;26.10;99294.00;;;;344251;28;83509;-87
2022/08/12 01:39:51;;;;;;;;;;;26.00;65.30;26.00;99295.00;;;;344291;28;86950;-87
2022/08/12 01:40:25;;;;;;;;;;;26.00;65.20;26.10;99293.00;;;;345748;28;83284;-87
2022/08/12 01:40:48;;;;;;;;;;;26.00;65.40;26.00;99297.00;;;;345555;28;88183;-88
2022/08/12 01:41:00;;;;;;;;;;;26.10;65.40;26.20;99305.00;;;;347166;28;83377;-87
2022/08/12 01:41:12;;;;;;;;;;;26.00;65.20;26.10;99300.00;;;;344351;28;86173;-87
2022/08/12 01:41:29;;;;;;;;;;;26.00;65.20;26.00;99292.00;;;;344354;28;83406;-87
2022/08/12 01:41:46;;;;;;;;;;;26.10;65.40;25.90;99299.00;;;;345789;28;84179;-87
2022/08/12 01:42:07;;;;;;;;;;;26.10;65.40;26.00;99295.00;;;;344338;28;83484;-87
2022/08/12 01:42:20;;;;;;;;;;;26.10;65.30;26.00;99296.00;;;;344296;28;86188;-87
2022/08/12 01:42:41;;;;;;;;;;;26.10;65.40;26.00;99294.00;;;;345846;28;83330;-87
2022/08/12 01:42:54;;;;;;;;;;;26.00;65.20;26.00;99293.00;;;;344242;28;86023;-88
2022/08/12 01:43:07;;;;;;;;;;;26.10;65.10;26.00;99295.00;;;;344339;28;83212;-88
2022/08/12 01:43:20;;;;;;;;;;;26.00;64.80;26.10;99289.00;;;;344398;28;86573;-88
2022/08/12 01:43:32;;;;;;;;;;;26.00;64.80;26.00;99291.00;;;;344296;28;83517;-87
2022/08/12 01:43:43;;;;;;;;;;;26.00;65.00;26.00;99293.00;;;;344347;28;84723;-87
2022/08/12 01:44:02;;;;;;;;;;;26.00;65.20;26.00;99292.00;;;;343082;28;83264;-87
2022/08/12 01:44:13;;;;;;;;;;;26.00;65.20;26.00;99292.00;;;;341568;28;84635;-88
2022/08/12 01:44:31;;;;;;;;;;;26.00;64.80;26.00;99292.00;;;;342917;28;83338;-88
2022/08/12 01:44:43;;;;;;;;;;;26.10;65.00;26.00;99290.00;;;;344362;28;86737;-87
2022/08/12 01:44:55;;;;;;;;;;;26.00;64.90;26.00;99295.00;;;;344336;28;82524;-88
2022/08/12 01:45:07;;;;;;;;;;;26.10;64.90;26.00;99294.00;;;;342881;28;88086;-87
2022/08/12 01:45:21;;;;;;;;;;;26.00;64.60;26.00;99295.00;;;;343017;28;83157;-87
2022/08/12 01:45:34;;;;;;;;;;;26.00;64.80;25.90;99294.00;;;;344139;28;86969;-87
2022/08/12 01:46:00;;;;;;;;;;;26.00;65.00;25.90;99294.00;;;;344408;28;83202;-87
2022/08/12 01:46:18;;;;;;;;;;;26.10;65.40;25.90;99304.00;;;;342943;28;85277;-87
2022/08/12 01:46:54;;;;;;;;;;;26.10;65.60;25.90;99296.00;;;;344407;28;83357;-87
2022/08/12 01:47:22;;;;;;;;;;;26.00;65.50;25.90;99305.00;;;;342906;28;87912;-88
2022/08/12 01:47:46;;;;;;;;;;;26.00;65.60;26.10;99299.00;;;;341617;28;83497;-87
2022/08/12 01:48:07;;;;;;;;;;;26.00;65.40;26.20;99298.00;;;;344329;28;87165;-87
2022/08/12 01:48:41;;;;;;;;;;;26.00;65.20;26.00;99298.00;;;;345753;28;83613;-87
2022/08/12 01:48:55;;;;;;;;;;;26.10;65.50;26.20;99309.00;;;;345499;28;88657;-87
2022/08/12 01:49:10;;;;;;;;;;;26.00;65.20;26.10;99294.00;;;;344440;28;83541;-88
2022/08/12 01:49:43;;;;;;;;;;;26.00;65.60;25.90;99298.00;;;;344444;28;84202;-88
2022/08/12 01:50:01;;;;;;;;;;;26.00;65.50;25.90;99294.00;;;;344424;28;82502;-87
2022/08/12 01:50:28;;;;;;;;;;;26.00;65.40;26.00;99294.00;;;;344311;28;84260;-88
2022/08/12 01:51:02;;;;;;;;;;;26.00;65.50;25.90;99299.00;;;;345760;28;82332;-87
2022/08/12 01:51:30;;;;;;;;;;;26.00;65.10;25.80;99298.00;;;;345201;28;86572;-87
2022/08/12 01:52:04;;;;;;;;;;;26.00;65.40;26.00;99295.00;;;;344417;28;82682;-88
2022/08/12 01:52:35;;;;;;;;;;;26.00;65.10;26.10;99292.00;;;;345666;28;87007;-87
2022/08/12 01:52:53;;;;;;;;;;;26.00;65.30;26.20;99296.00;;;;347123;28;83272;-87
2022/08/12 01:53:09;;;;;;;;;;;26.00;65.40;26.00;99290.00;;;;345660;28;83759;-88
2022/08/12 01:53:23;;;;;;;;;;;26.00;65.60;25.90;99290.00;;;;345805;28;82465;-87
2022/08/12 01:54:03;;;;;;;;;;;26.00;65.40;25.80;99288.00;;;;344317;28;85302;-88
2022/08/12 01:54:16;;;;;;;;;;;26.00;65.40;25.80;99286.00;;;;341399;28;83930;-88
2022/08/12 01:54:28;;;;;;;;;;;26.00;65.80;25.80;99283.00;;;;345181;28;87775;-88
2022/08/12 01:54:43;;;;;;;;;;;26.00;65.80;25.80;99291.00;;;;344440;28;83322;-87
2022/08/12 01:54:57;;;;;;;;;;;26.00;66.10;25.90;99287.00;;;;345741;28;83948;-87
2022/08/12 01:55:10;;;;;;;;;;;25.90;65.50;25.90;99286.00;;;;345686;28;83499;-87
2022/08/12 01:55:24;;;;;;;;;;;26.00;65.70;25.90;99291.00;;;;343026;28;84668;-87
2022/08/12 01:55:41;;;;;;;;;;;26.00;65.50;25.80;99286.00;;;;345713;28;82325;-87
2022/08/12 01:55:52;;;;;;;;;;;26.00;65.80;25.80;99296.00;;;;347004;28;87196;-87
2022/08/12 01:56:05;;;;;;;;;;;25.90;66.00;25.90;99296.00;;;;344251;28;83412;-87
2022/08/12 01:56:17;;;;;;;;;;;25.90;65.50;25.80;99287.00;;;;342960;28;84355;-87
2022/08/12 01:56:49;;;;;;;;;;;25.90;65.50;25.80;99295.00;;;;342957;28;83602;-87
2022/08/12 01:57:23;;;;;;;;;;;25.90;65.90;26.00;99294.00;;;;344299;28;87643;-88
2022/08/12 01:59:46;;;;;;;;;;;25.90;65.70;25.80;99289.00;;;;346483;28;82492;-87
2022/08/12 02:00:04;;;;;;;;;;;25.90;65.60;25.80;99290.00;;;;344227;28;88140;-87
2022/08/12 02:00:17;;;;;;;;;;;25.90;65.70;25.90;99300.00;;;;347056;28;83563;-87
2022/08/12 02:00:43;;;;;;;;;;;25.90;65.50;26.00;99295.00;;;;344368;28;84188;-87
2022/08/12 02:01:08;;;;;;;;;;;25.90;65.40;25.80;99298.00;;;;344359;28;83342;-87
2022/08/12 02:01:22;;;;;;;;;;;25.90;65.80;25.80;99287.00;;;;345638;28;87785;-87
2022/08/12 02:01:34;;;;;;;;;;;25.90;65.60;25.90;99305.00;;;;345758;28;83446;-87
2022/08/12 02:01:46;;;;;;;;;;;25.90;65.20;25.80;99291.00;;;;345593;28;88486;-87
2022/08/12 02:01:58;;;;;;;;;;;25.90;65.30;25.90;99304.00;;;;344354;28;82423;-87
2022/08/12 02:02:15;;;;;;;;;;;25.90;65.40;25.90;99299.00;;;;345465;28;88458;-87
2022/08/12 02:02:31;;;;;;;;;;;25.90;65.50;25.90;99297.00;;;;344404;28;82509;-87
2022/08/12 02:02:51;;;;;;;;;;;25.90;65.40;25.90;99307.00;;;;344264;28;85082;-87
2022/08/12 02:03:18;;;;;;;;;;;25.90;65.20;25.80;99297.00;;;;344259;28;83482;-87
2022/08/12 02:11:18;;;;;;;;;;;25.90;66.00;26.00;99311.00;;;;348266;27;86490;-87
2022/08/12 02:11:48;;;;;;;;;;;25.90;65.90;26.00;99299.00;;;;346134;28;83389;-87
2022/08/12 02:12:11;;;;;;;;;;;25.90;65.80;25.80;99300.00;;;;344206;28;84794;-87
2022/08/12 02:12:59;;;;;;;;;;;25.90;66.20;25.80;99300.00;;;;342932;28;83305;-87
2022/08/12 02:14:01;;;;;;;;;;;25.90;66.10;25.90;99307.00;;;;345656;28;84008;-87
2022/08/12 02:14:23;;;;;;;;;;;25.90;66.10;25.90;99298.00;;;;341455;28;83344;-87
2022/08/12 02:14:35;;;;;;;;;;;25.90;66.50;25.90;99304.00;;;;341510;28;85238;-87
2022/08/12 02:15:11;;;;;;;;;;;25.80;66.40;25.70;99300.00;;;;341510;28;83341;-87
2022/08/12 02:15:55;;;;;;;;;;;25.80;66.60;25.80;99304.00;;;;341496;28;84739;-87
2022/08/12 02:16:22;;;;;;;;;;;25.80;67.00;25.80;99308.00;;;;336224;29;83269;-87
2022/08/12 02:16:40;;;;;;;;;;;25.80;66.10;25.70;99297.00;;;;339636;28;87682;-87
2022/08/12 02:17:16;;;;;;;;;;;25.80;66.20;25.80;99295.00;;;;340101;28;82729;-87
2022/08/12 02:17:47;;;;;;;;;;;25.80;66.60;25.70;99306.00;;;;341372;28;85727;-87
2022/08/12 02:18:29;;;;;;;;;;;25.80;66.50;25.80;99310.00;;;;340208;28;83173;-87
2022/08/12 02:19:09;;;;;;;;;;;25.70;66.50;25.70;99296.00;;;;340094;28;88222;-86
2022/08/12 02:19:38;;;;;;;;;;;25.70;66.80;25.60;99309.00;;;;340153;28;83710;-87
2022/08/12 02:20:02;;;;;;;;;;;25.70;66.60;25.60;99308.00;;;;338780;28;85449;-87
2022/08/12 02:20:20;;;;;;;;;;;25.70;66.80;25.60;99298.00;;;;338842;28;83471;-87
2022/08/12 02:20:48;;;;;;;;;;;25.70;67.00;25.60;99306.00;;;;340105;28;87163;-87
2022/08/12 02:21:05;;;;;;;;;;;25.70;66.80;25.70;99306.00;;;;338949;28;82543;-87
2022/08/12 02:21:37;;;;;;;;;;;25.70;66.10;25.70;99310.00;;;;340064;28;86382;-87
2022/08/12 02:22:03;;;;;;;;;;;25.70;66.00;25.60;99299.00;;;;341554;28;83335;-87
2022/08/12 02:22:36;;;;;;;;;;;25.70;67.00;25.70;99307.00;;;;338806;28;83177;-87
2022/08/12 02:22:49;;;;;;;;;;;25.70;66.90;25.70;99298.00;;;;338810;28;83452;-87
2022/08/12 02:23:02;;;;;;;;;;;25.70;66.70;25.60;99297.00;;;;340208;28;83521;-87
2022/08/12 02:23:13;;;;;;;;;;;25.70;66.80;25.60;99294.00;;;;338841;28;83477;-87
2022/08/12 02:23:26;;;;;;;;;;;25.70;67.00;25.60;99298.00;;;;339938;28;88651;-87
2022/08/12 02:23:38;;;;;;;;;;;25.70;67.00;25.60;99306.00;;;;338900;28;83442;-87
2022/08/12 02:23:50;;;;;;;;;;;25.60;66.80;25.60;99304.00;;;;338749;28;85712;-87
2022/08/12 02:24:02;;;;;;;;;;;25.60;66.70;25.60;99304.00;;;;338884;28;83348;-87
2022/08/12 02:24:17;;;;;;;;;;;25.60;66.70;25.50;99298.00;;;;338708;28;83389;-87
2022/08/12 02:24:30;;;;;;;;;;;25.60;66.90;25.50;99296.00;;;;340130;28;83433;-87
2022/08/12 02:24:43;;;;;;;;;;;25.70;67.20;25.40;99295.00;;;;337489;28;86407;-87
2022/08/12 02:25:01;;;;;;;;;;;25.60;67.30;25.40;99299.00;;;;337717;28;82183;-87
2022/08/12 02:25:25;;;;;;;;;;;25.60;67.30;25.70;99296.00;;;;338699;28;87635;-87
2022/08/12 02:25:42;;;;;;;;;;;25.60;67.00;25.70;99296.00;;;;340179;28;83680;-87
2022/08/12 02:25:58;;;;;;;;;;;25.60;66.80;25.70;99297.00;;;;340181;28;85434;-87
2022/08/12 02:26:09;;;;;;;;;;;25.60;66.80;25.60;99293.00;;;;341583;28;82745;-87
2022/08/12 02:26:21;;;;;;;;;;;25.70;67.10;25.50;99295.00;;;;340235;28;84373;-87
2022/08/12 02:26:33;;;;;;;;;;;25.60;67.10;25.50;99293.00;;;;338875;28;82594;-88
2022/08/12 02:26:48;;;;;;;;;;;25.60;67.30;25.50;99306.00;;;;338733;28;87263;-87
2022/08/12 02:27:00;;;;;;;;;;;25.60;67.30;25.50;99293.00;;;;340290;28;83275;-88
2022/08/12 02:27:13;;;;;;;;;;;25.60;67.30;25.50;99304.00;;;;338709;28;87376;-87
2022/08/12 02:27:26;;;;;;;;;;;25.60;67.50;25.50;99298.00;;;;338848;28;83471;-87
2022/08/12 02:27:39;;;;;;;;;;;25.60;67.20;25.40;99291.00;;;;337487;28;88541;-87
2022/08/12 02:27:52;;;;;;;;;;;25.60;67.10;25.50;99298.00;;;;338967;28;83353;-87
2022/08/12 02:28:05;;;;;;;;;;;25.60;67.00;25.50;99299.00;;;;338703;28;87105;-87
2022/08/12 02:28:18;;;;;;;;;;;25.60;67.20;25.50;99300.00;;;;338825;28;83482;-87
2022/08/12 02:28:30;;;;;;;;;;;25.60;67.00;25.50;99290.00;;;;340009;28;88085;-87
2022/08/12 02:28:42;;;;;;;;;;;25.60;66.70;25.50;99299.00;;;;340182;28;82496;-87
2022/08/12 02:28:54;;;;;;;;;;;25.60;66.90;25.50;99297.00;;;;338720;28;87911;-87
2022/08/12 02:29:06;;;;;;;;;;;25.50;66.90;25.50;99295.00;;;;340224;28;83356;-87
2022/08/12 02:29:19;;;;;;;;;;;25.60;67.10;25.40;99293.00;;;;338772;28;87523;-87
2022/08/12 02:29:30;;;;;;;;;;;25.60;67.30;25.40;99299.00;;;;341506;28;83715;-86